Aviation Digital Data Service (ADDS)

Output produced by TAFs form (1958 UTC 25 February 2018)
found at http://aviationweather.gov/adds/tafs/
 
METAR text: ZSPD 251930Z 34001MPS CAVOK 03/02 Q1025 NOSIG
Conditions at: ZSPD (SHANGHAI/PUDONG , CN) observed 1930 UTC 25 February 2018
Temperature: 3.0°C (37°F)
Dewpoint: 2.0°C (36°F) [RH = 93%]
Pressure (altimeter): 30.27 inches Hg (1025.0 mb)
Winds: from the NNW (340 degrees) at 2 MPH (2 knots; 1.0 m/s)
Visibility: 6 or more miles (10+ km)
Ceiling: ceiling and visibility are OK
Clouds: unknown
Weather: no significant weather observed at this time

Forecast for: ZSPD (SHANGHAI/PUDONG , CN)
Text: TAF ZSPD 251532Z 2518/2618 04004MPS 5000 BR SCT015 TX13/2606Z TN03/2521Z
Forecast period: 1800 UTC 25 February 2018 to 0400 UTC 26 February 2018
Forecast type: FROM: standard forecast or significant change
Winds: from the NE (40 degrees) at 9 MPH (8 knots; 4.2 m/s)
Visibility: 3 miles (5 km)
Clouds: scattered clouds at 1500 feet AGL
Weather: BR  (mist)
Text: BECMG 2604/2606 11004MPS
Forecast period: 0400 to 1800 UTC 26 February 2018
Forecast type: BECOMING: Conditions expected to become as follows by 0600 UTC 26 February 2018
Winds: from the ESE (110 degrees) at 9 MPH (8 knots; 4.2 m/s)
Visibility: 3 miles (5 km)
Clouds: scattered clouds at 1500 feet AGL
Weather: BR  (mist)